createdAt,value
2023-04-09T00:02:01.979Z,10.83
2023-04-09T00:04:32.084Z,10.93
2023-04-09T00:07:02.671Z,11.04
2023-04-09T00:09:33.879Z,11.07
2023-04-09T00:12:06.627Z,10.22
2023-04-09T00:14:36.894Z,10.88
2023-04-09T00:17:07.533Z,11.00
2023-04-09T00:19:37.730Z,11.07
2023-04-09T00:22:08.751Z,10.22
2023-04-09T00:24:39.133Z,11.06
2023-04-09T00:27:09.609Z,11.05
2023-04-09T00:29:42.543Z,10.31
2023-04-09T00:32:13.129Z,10.45
2023-04-09T00:34:43.546Z,10.91
2023-04-09T00:37:17.473Z,10.33
2023-04-09T00:39:48.981Z,10.94
2023-04-09T00:42:36.699Z,9.82
2023-04-09T00:45:22.591Z,10.66
2023-04-09T00:48:08.534Z,10.95
2023-04-09T00:50:54.720Z,10.94
2023-04-09T00:53:23.468Z,10.93
2023-04-09T00:56:01.122Z,10.85
2023-04-09T00:58:31.665Z,10.96
2023-04-09T01:01:04.082Z,10.99
2023-04-09T01:03:40.922Z,10.69
2023-04-09T01:06:22.914Z,10.94
2023-04-09T01:09:03.477Z,10.95
2023-04-09T01:12:01.861Z,11.02
2023-04-09T01:14:36.876Z,10.92
2023-04-09T01:17:16.386Z,10.21
2023-04-09T01:20:11.878Z,10.36
2023-04-09T01:22:49.206Z,10.62
2023-04-09T01:25:32.616Z,10.52
2023-04-09T01:28:19.173Z,10.11
2023-04-09T01:30:52.511Z,10.52
2023-04-09T01:33:29.008Z,10.62
2023-04-09T01:36:01.173Z,10.56
2023-04-09T01:38:32.956Z,9.71
2023-04-09T01:41:11.772Z,10.40
2023-04-09T01:43:42.640Z,10.05
2023-04-09T01:46:15.422Z,10.03
2023-04-09T01:48:53.463Z,10.35
2023-04-09T01:51:23.786Z,10.51
2023-04-09T01:53:54.164Z,10.32
2023-04-09T01:56:27.842Z,9.29
2023-04-09T01:58:58.503Z,10.73
2023-04-09T02:01:34.501Z,10.75
2023-04-09T02:04:03.020Z,10.67
2023-04-09T02:06:46.230Z,10.66
2023-04-09T02:09:15.906Z,10.73
2023-04-09T02:11:42.864Z,10.84
2023-04-09T02:14:12.577Z,10.22
2023-04-09T02:16:40.113Z,10.35
2023-04-09T02:19:11.298Z,10.32
2023-04-09T02:21:43.766Z,10.29
2023-04-09T02:24:13.928Z,10.04
2023-04-09T02:26:44.420Z,10.36
2023-04-09T02:29:14.733Z,10.57
2023-04-09T02:31:45.498Z,10.39
2023-04-09T02:34:16.395Z,10.38
2023-04-09T02:36:47.014Z,10.40
2023-04-09T02:39:20.385Z,10.43
2023-04-09T02:41:51.628Z,10.55
2023-04-09T02:44:21.654Z,10.20
2023-04-09T02:46:52.479Z,9.34
2023-04-09T02:49:24.728Z,10.30
2023-04-09T02:51:55.612Z,10.49
2023-04-09T02:54:25.661Z,9.93
2023-04-09T02:57:00.356Z,10.03
2023-04-09T02:59:32.262Z,10.04
2023-04-09T03:02:02.043Z,10.00
2023-04-09T03:04:32.743Z,10.14
2023-04-09T03:07:03.819Z,10.21
2023-04-09T03:09:34.125Z,9.32
2023-04-09T03:12:05.270Z,10.07
2023-04-09T03:14:38.675Z,10.47
2023-04-09T03:17:08.923Z,10.43
2023-04-09T03:19:39.852Z,10.53
2023-04-09T03:22:10.099Z,10.50
2023-04-09T03:24:40.636Z,9.79
2023-04-09T03:27:10.964Z,10.03
2023-04-09T03:29:40.953Z,10.32
2023-04-09T03:32:14.188Z,10.24
2023-04-09T03:34:44.769Z,10.01
2023-04-09T03:37:15.588Z,10.12
2023-04-09T03:39:46.672Z,10.26
2023-04-09T03:42:17.878Z,10.05
2023-04-09T03:44:48.592Z,10.30
2023-04-09T03:47:19.636Z,10.25
2023-04-09T03:49:51.917Z,10.16
2023-04-09T03:52:22.959Z,10.22
2023-04-09T03:54:54.093Z,10.16
2023-04-09T03:57:27.676Z,10.11
2023-04-09T03:59:58.336Z,9.99
2023-04-09T04:02:32.885Z,10.23
2023-04-09T04:05:00.770Z,10.31
2023-04-09T04:07:32.168Z,10.26
2023-04-09T04:10:05.895Z,10.35
2023-04-09T04:12:35.144Z,10.15
2023-04-09T04:15:10.272Z,9.75
2023-04-09T04:17:40.726Z,10.23
2023-04-09T04:20:11.513Z,10.39
2023-04-09T04:22:45.646Z,10.51
2023-04-09T04:25:16.375Z,9.78
2023-04-09T04:27:46.948Z,10.39
2023-04-09T04:30:18.564Z,10.08
2023-04-09T04:32:49.651Z,10.43
2023-04-09T04:35:21.118Z,10.35
2023-04-09T04:37:51.243Z,10.22
2023-04-09T04:40:25.527Z,10.26
2023-04-09T04:42:56.138Z,10.41
2023-04-09T04:45:26.783Z,10.45
2023-04-09T04:47:57.330Z,10.42
2023-04-09T04:50:27.750Z,10.26
2023-04-09T04:52:58.348Z,10.30
2023-04-09T04:55:28.858Z,10.31
2023-04-09T04:58:03.663Z,10.27
2023-04-09T05:00:34.077Z,10.26
2023-04-09T05:03:04.909Z,10.21
2023-04-09T05:05:36.811Z,10.41
2023-04-09T05:08:07.451Z,9.21
2023-04-09T05:10:40.981Z,9.15
2023-04-09T05:13:08.968Z,10.32
2023-04-09T05:15:44.311Z,9.95
2023-04-09T05:18:14.724Z,10.27
2023-04-09T05:20:46.441Z,10.30
2023-04-09T05:23:17.262Z,9.87
2023-04-09T05:25:49.517Z,9.81
2023-04-09T05:28:18.918Z,10.07
2023-04-09T05:30:50.035Z,10.35
2023-04-09T05:33:22.725Z,6.34
2023-04-09T05:35:53.187Z,10.31
2023-04-09T05:38:24.113Z,10.41
2023-04-09T05:40:54.901Z,10.46
2023-04-09T05:43:25.350Z,10.23
2023-04-09T05:45:55.383Z,10.41
2023-04-09T05:48:26.650Z,10.58
2023-04-09T05:51:01.256Z,10.63
2023-04-09T05:53:31.720Z,10.29
2023-04-09T05:56:01.367Z,9.47
2023-04-09T05:58:31.790Z,9.74
2023-04-09T06:01:02.139Z,10.35
2023-04-09T06:03:32.979Z,9.51
2023-04-09T06:06:03.820Z,9.99
2023-04-09T06:08:38.511Z,9.85
2023-04-09T06:11:09.844Z,10.29
2023-04-09T06:13:40.986Z,10.55
2023-04-09T06:16:16.231Z,10.37
2023-04-09T06:18:48.923Z,9.78
2023-04-09T06:21:17.845Z,10.43
2023-04-09T06:23:48.603Z,10.18
2023-04-09T06:26:20.468Z,9.02
2023-04-09T06:28:51.644Z,10.50
2023-04-09T06:31:22.356Z,10.00
2023-04-09T06:33:56.560Z,10.62
2023-04-09T06:36:28.070Z,10.69
2023-04-09T06:38:59.100Z,10.58
2023-04-09T06:41:35.634Z,10.70
2023-04-09T06:44:06.503Z,10.90
2023-04-09T06:46:38.174Z,10.42
2023-04-09T06:49:08.960Z,10.44
2023-04-09T06:51:40.331Z,10.42
2023-04-09T06:54:10.850Z,10.82
2023-04-09T06:56:41.612Z,10.18
2023-04-09T06:59:17.542Z,11.01
2023-04-09T07:01:48.888Z,11.00
2023-04-09T07:04:19.618Z,11.23
2023-04-09T07:06:54.143Z,10.59
2023-04-09T07:09:23.847Z,9.95
2023-04-09T07:11:55.026Z,10.36
2023-04-09T07:14:25.474Z,10.78
2023-04-09T07:16:56.478Z,9.61
2023-04-09T07:19:27.157Z,11.17
2023-04-09T07:21:58.172Z,11.47
2023-04-09T07:24:32.341Z,11.49
2023-04-09T07:27:03.580Z,9.74
2023-04-09T07:29:33.725Z,9.25
2023-04-09T07:32:04.254Z,10.92
2023-04-09T07:34:34.906Z,11.73
2023-04-09T07:37:05.947Z,11.31
2023-04-09T07:39:36.352Z,12.59
2023-04-09T07:42:11.958Z,11.69
2023-04-09T07:44:43.130Z,12.03
2023-04-09T07:47:13.344Z,11.89
2023-04-09T07:49:44.073Z,11.82
2023-04-09T07:52:15.183Z,12.78
2023-04-09T07:54:45.296Z,12.50
2023-04-09T07:57:16.373Z,13.53
2023-04-09T07:59:50.443Z,13.63
2023-04-09T08:02:20.670Z,13.77
2023-04-09T08:04:51.340Z,13.69
2023-04-09T08:07:25.343Z,13.73
2023-04-09T08:09:56.044Z,13.31
2023-04-09T08:12:26.933Z,13.22
2023-04-09T08:14:57.426Z,12.60
2023-04-09T08:17:27.995Z,13.70
2023-04-09T08:19:58.500Z,13.76
2023-04-09T08:22:29.125Z,13.73
2023-04-09T08:25:02.820Z,13.88
2023-04-09T08:27:34.037Z,12.90
2023-04-09T08:30:04.826Z,13.06
2023-04-09T08:32:36.241Z,14.21
2023-04-09T08:35:06.728Z,14.21
2023-04-09T08:37:36.705Z,14.64
2023-04-09T08:40:08.391Z,13.56
2023-04-09T08:42:47.046Z,14.95
2023-04-09T08:45:13.347Z,14.48
2023-04-09T08:47:43.054Z,14.78
2023-04-09T08:50:13.989Z,15.22
2023-04-09T08:52:47.258Z,14.73
2023-04-09T08:55:15.239Z,14.44
2023-04-09T08:57:46.028Z,15.27
2023-04-09T09:00:20.347Z,15.00
2023-04-09T09:03:01.887Z,14.74
2023-04-09T09:05:45.945Z,14.08
2023-04-09T09:08:25.241Z,14.78
2023-04-09T09:10:51.891Z,15.33
2023-04-09T09:13:21.648Z,15.52
2023-04-09T09:15:55.590Z,14.10
2023-04-09T09:18:38.920Z,13.21
2023-04-09T09:21:16.924Z,14.20
2023-04-09T09:23:49.818Z,13.70
2023-04-09T09:26:26.744Z,13.71
2023-04-09T09:28:58.284Z,13.57
2023-04-09T09:31:28.756Z,13.90
2023-04-09T09:34:08.394Z,14.20
2023-04-09T09:36:39.090Z,14.15
2023-04-09T09:39:12.295Z,13.09
2023-04-09T09:41:43.877Z,13.53
2023-04-09T09:44:32.030Z,13.39
2023-04-09T09:47:03.983Z,13.64
2023-04-09T09:49:34.627Z,13.83
2023-04-09T09:52:10.154Z,14.00
2023-04-09T09:54:41.872Z,13.45
2023-04-09T09:57:13.194Z,11.98
2023-04-09T10:00:03.094Z,13.65
2023-04-09T10:02:43.063Z,13.29
2023-04-09T10:05:15.737Z,12.65
2023-04-09T10:07:48.629Z,12.85
2023-04-09T10:10:19.128Z,12.85
2023-04-09T10:12:54.093Z,12.98
2023-04-09T10:15:28.066Z,13.08
2023-04-09T10:17:59.038Z,13.00
2023-04-09T10:20:51.346Z,13.09
2023-04-09T10:23:41.598Z,13.35
2023-04-09T10:26:12.912Z,13.54
2023-04-09T10:28:42.602Z,13.53
2023-04-09T10:31:08.964Z,12.76
2023-04-09T10:33:38.763Z,13.44
2023-04-09T10:36:11.467Z,13.10
2023-04-09T10:38:40.280Z,12.89
2023-04-09T10:41:09.256Z,12.17
2023-04-09T10:43:42.720Z,12.87
2023-04-09T10:46:45.249Z,12.89
2023-04-09T10:49:17.298Z,13.25
2023-04-09T10:52:11.585Z,13.29
2023-04-09T10:54:45.389Z,13.58
2023-04-09T10:57:18.591Z,12.99
2023-04-09T10:59:54.469Z,13.31
2023-04-09T11:02:37.785Z,13.19
2023-04-09T11:05:19.036Z,13.51
2023-04-09T11:08:02.756Z,13.53
2023-04-09T11:10:33.530Z,12.39
2023-04-09T11:13:04.430Z,13.02
2023-04-09T11:15:36.267Z,13.24
2023-04-09T11:18:08.975Z,12.52
2023-04-09T11:20:39.858Z,13.17
2023-04-09T11:23:17.300Z,13.51
2023-04-09T11:25:50.501Z,13.30
2023-04-09T11:28:17.279Z,12.99
2023-04-09T11:30:46.084Z,13.18
2023-04-09T11:33:13.127Z,12.03
2023-04-09T11:35:39.342Z,13.88
2023-04-09T11:38:07.216Z,14.44
2023-04-09T11:40:33.412Z,14.43
2023-04-09T11:43:00.335Z,14.57
2023-04-09T11:45:27.997Z,14.35
2023-04-09T11:47:54.713Z,14.57
2023-04-09T11:50:21.160Z,14.34
2023-04-09T11:52:49.088Z,14.42
2023-04-09T11:55:26.037Z,14.87
2023-04-09T11:58:02.143Z,15.02
2023-04-09T12:00:28.644Z,15.54
2023-04-09T12:03:01.781Z,14.28
2023-04-09T12:05:30.392Z,14.81
2023-04-09T12:08:17.803Z,14.52
2023-04-09T12:10:44.750Z,15.32
2023-04-09T12:13:11.243Z,14.39
2023-04-09T12:15:40.502Z,15.59
2023-04-09T12:18:10.946Z,15.50
2023-04-09T12:20:38.976Z,15.54
2023-04-09T12:23:06.508Z,15.14
2023-04-09T12:25:38.023Z,14.41
2023-04-09T12:28:05.808Z,14.88
2023-04-09T12:30:32.796Z,14.80
2023-04-09T12:32:59.626Z,14.48
2023-04-09T12:35:26.202Z,15.48
2023-04-09T12:37:52.487Z,15.38
2023-04-09T12:40:19.250Z,15.54
2023-04-09T12:42:45.918Z,15.76
2023-04-09T12:45:13.768Z,16.29
2023-04-09T12:47:40.529Z,16.39
2023-04-09T12:50:08.601Z,15.57
2023-04-09T12:52:35.152Z,15.03
2023-04-09T12:55:02.240Z,14.65
2023-04-09T12:57:28.706Z,14.08
2023-04-09T12:59:55.187Z,15.11
2023-04-09T13:02:21.602Z,16.01
2023-04-09T13:04:48.297Z,15.41
2023-04-09T13:07:16.643Z,15.50
2023-04-09T13:09:43.933Z,16.13
2023-04-09T13:12:10.783Z,15.53
2023-04-09T13:14:40.296Z,15.13
2023-04-09T13:17:06.654Z,15.77
2023-04-09T13:19:32.871Z,15.70
2023-04-09T13:21:58.960Z,15.85
2023-04-09T13:24:25.328Z,16.28
2023-04-09T13:26:51.748Z,15.87
2023-04-09T13:29:17.892Z,15.28
2023-04-09T13:31:43.947Z,15.35
2023-04-09T13:34:10.210Z,14.63
2023-04-09T13:36:36.345Z,14.41
2023-04-09T13:39:05.342Z,15.82
2023-04-09T13:41:32.056Z,17.02
2023-04-09T13:43:58.921Z,15.65
2023-04-09T13:46:25.151Z,16.48
2023-04-09T13:48:51.512Z,16.25
2023-04-09T13:51:17.807Z,16.86
2023-04-09T13:53:45.095Z,16.66
2023-04-09T13:56:11.192Z,16.93
2023-04-09T13:58:37.261Z,17.68
2023-04-09T14:01:04.075Z,17.55
2023-04-09T14:03:34.423Z,17.28
2023-04-09T14:06:01.099Z,17.36
2023-04-09T14:08:29.624Z,17.37
2023-04-09T14:10:56.144Z,17.61
2023-04-09T14:13:22.249Z,17.89
2023-04-09T14:15:49.362Z,18.03
2023-04-09T14:18:15.489Z,18.43
2023-04-09T14:20:41.624Z,14.30
2023-04-09T14:23:07.729Z,18.18
2023-04-09T14:25:33.830Z,17.92
2023-04-09T14:27:59.967Z,17.20
2023-04-09T14:30:26.114Z,16.82
2023-04-09T14:32:52.258Z,15.58
2023-04-09T14:35:18.417Z,16.89
2023-04-09T14:37:46.227Z,17.32
2023-04-09T14:40:12.590Z,16.99
2023-04-09T14:42:40.434Z,16.43
2023-04-09T14:45:07.011Z,16.49
2023-04-09T14:47:33.173Z,17.18
2023-04-09T14:49:59.261Z,16.59
2023-04-09T14:52:25.426Z,16.27
2023-04-09T14:54:51.482Z,17.25
2023-04-09T14:57:17.512Z,17.18
2023-04-09T14:59:43.638Z,16.87
2023-04-09T15:02:10.500Z,16.32
2023-04-09T15:04:36.752Z,15.63
2023-04-09T15:07:02.860Z,16.81
2023-04-09T15:09:29.140Z,16.83
2023-04-09T15:11:56.520Z,16.29
2023-04-09T15:14:23.399Z,16.87
2023-04-09T15:16:49.841Z,17.39
2023-04-09T15:19:16.202Z,17.48
2023-04-09T15:21:43.132Z,16.63
2023-04-09T15:24:09.413Z,16.99
2023-04-09T15:26:35.907Z,17.88
2023-04-09T15:29:05.704Z,16.92
2023-04-09T15:31:32.328Z,16.34
2023-04-09T15:33:59.048Z,16.33
2023-04-09T15:36:27.051Z,16.68
2023-04-09T15:41:21.750Z,16.59
2023-04-09T15:43:48.061Z,16.52
2023-04-09T15:46:15.643Z,16.54
2023-04-09T15:48:42.037Z,16.01
2023-04-09T15:51:08.555Z,15.16
2023-04-09T15:53:35.144Z,16.17
2023-04-09T15:56:02.814Z,16.23
2023-04-09T15:58:29.064Z,15.90
2023-04-09T16:00:55.402Z,16.08
2023-04-09T16:03:21.600Z,16.07
2023-04-09T16:05:48.016Z,16.23
2023-04-09T16:08:14.145Z,16.52
2023-04-09T16:10:41.048Z,15.95
2023-04-09T16:13:07.436Z,16.27
2023-04-09T16:15:33.893Z,12.64
2023-04-09T16:18:00.201Z,15.98
2023-04-09T16:20:28.711Z,15.94
2023-04-09T16:22:55.166Z,15.28
2023-04-09T16:25:21.662Z,15.24
2023-04-09T16:27:47.885Z,15.99
2023-04-09T16:30:14.338Z,15.02
2023-04-09T16:32:40.792Z,14.19
2023-04-09T16:35:07.274Z,15.37
2023-04-09T16:37:34.498Z,16.17
2023-04-09T16:40:00.686Z,16.29
2023-04-09T16:42:27.028Z,16.11
2023-04-09T16:44:53.716Z,16.38
2023-04-09T16:47:20.395Z,16.38
2023-04-09T16:49:46.554Z,15.84
2023-04-09T16:52:13.085Z,16.07
2023-04-09T16:54:39.263Z,15.42
2023-04-09T16:57:05.720Z,15.92
2023-04-09T16:59:31.981Z,16.07
2023-04-09T17:01:58.305Z,15.95
2023-04-09T17:04:25.815Z,15.84
2023-04-09T17:06:51.976Z,15.90
2023-04-09T17:09:18.391Z,15.84
2023-04-09T17:11:46.237Z,14.64
2023-04-09T17:14:14.410Z,16.03
2023-04-09T17:16:40.813Z,16.19
2023-04-09T17:19:09.124Z,15.79
2023-04-09T17:21:35.990Z,15.14
2023-04-09T17:24:02.300Z,16.01
2023-04-09T17:26:28.643Z,15.99
2023-04-09T17:28:54.896Z,14.61
2023-04-09T17:31:23.282Z,15.96
2023-04-09T17:33:49.677Z,15.20
2023-04-09T17:36:19.933Z,16.01
2023-04-09T17:38:47.033Z,16.22
2023-04-09T17:41:13.126Z,16.23
2023-04-09T17:43:39.243Z,16.15
2023-04-09T17:46:08.080Z,16.02
2023-04-09T17:48:36.319Z,15.89
2023-04-09T17:51:02.955Z,15.96
2023-04-09T17:53:29.050Z,15.57
2023-04-09T17:55:55.140Z,15.81
2023-04-09T17:58:21.867Z,15.74
2023-04-09T18:00:48.043Z,15.15
2023-04-09T18:03:14.863Z,15.67
2023-04-09T18:05:41.308Z,15.84
2023-04-09T18:08:07.469Z,15.85
2023-04-09T18:10:33.818Z,15.26
2023-04-09T18:13:00.116Z,15.94
2023-04-09T18:15:26.451Z,14.80
2023-04-09T18:17:52.745Z,15.81
2023-04-09T18:20:18.895Z,15.54
2023-04-09T18:22:45.534Z,15.51
2023-04-09T18:25:11.668Z,15.05
2023-04-09T18:27:37.780Z,15.31
2023-04-09T18:30:04.421Z,15.16
2023-04-09T18:32:31.545Z,14.70
2023-04-09T18:34:57.678Z,15.30
2023-04-09T18:37:23.880Z,15.15
2023-04-09T18:39:50.156Z,15.07
2023-04-09T18:42:16.241Z,15.22
2023-04-09T18:44:42.348Z,14.85
2023-04-09T18:47:08.672Z,14.90
2023-04-09T18:49:35.450Z,14.80
2023-04-09T18:52:02.090Z,13.11
2023-04-09T18:54:28.192Z,14.61
2023-04-09T18:56:54.295Z,14.92
2023-04-09T18:59:21.073Z,15.06
2023-04-09T19:01:47.214Z,15.03
2023-04-09T19:04:13.543Z,14.69
2023-04-09T19:06:40.115Z,14.44
2023-04-09T19:09:06.800Z,14.38
2023-04-09T19:11:32.893Z,14.58
2023-04-09T19:13:59.003Z,14.77
2023-04-09T19:16:25.433Z,14.40
2023-04-09T19:18:51.808Z,14.38
2023-04-09T19:21:17.956Z,14.51
2023-04-09T19:23:44.894Z,13.86
2023-04-09T19:26:11.152Z,14.14
2023-04-09T19:28:37.252Z,14.14
2023-04-09T19:31:05.287Z,13.93
2023-04-09T19:33:31.806Z,13.92
2023-04-09T19:35:57.997Z,14.20
2023-04-09T19:38:24.205Z,14.00
2023-04-09T19:40:50.268Z,13.68
2023-04-09T19:43:16.353Z,13.40
2023-04-09T19:45:42.798Z,13.35
2023-04-09T19:48:08.949Z,14.03
2023-04-09T19:50:39.717Z,11.78
2023-04-09T19:53:06.289Z,12.68
2023-04-09T19:55:33.234Z,13.04
2023-04-09T19:57:59.419Z,13.55
2023-04-09T20:00:25.975Z,13.78
2023-04-09T20:02:52.732Z,13.92
2023-04-09T20:05:20.385Z,12.83
2023-04-09T20:07:47.342Z,13.43
2023-04-09T20:10:13.401Z,13.10
2023-04-09T20:12:39.642Z,13.50
2023-04-09T20:15:07.954Z,12.68
2023-04-09T20:17:35.438Z,12.90
2023-04-09T20:20:01.543Z,12.74
2023-04-09T20:22:28.780Z,13.21
2023-04-09T20:24:55.806Z,12.67
2023-04-09T20:27:21.941Z,12.34
2023-04-09T20:29:48.710Z,13.04
2023-04-09T20:32:14.907Z,12.65
2023-04-09T20:34:41.067Z,12.57
2023-04-09T20:37:07.116Z,13.01
2023-04-09T20:39:33.225Z,12.95
2023-04-09T20:41:59.286Z,12.79
2023-04-09T20:44:26.782Z,11.75
2023-04-09T20:46:52.873Z,12.96
2023-04-09T20:49:19.039Z,12.88
2023-04-09T20:51:45.586Z,12.56
2023-04-09T20:54:11.727Z,12.97
2023-04-09T20:56:37.814Z,12.67
2023-04-09T20:59:03.937Z,12.64
2023-04-09T21:01:31.462Z,12.23
2023-04-09T21:03:57.712Z,12.63
2023-04-09T21:06:23.977Z,12.64
2023-04-09T21:08:50.409Z,12.55
2023-04-09T21:11:16.644Z,12.26
2023-04-09T21:13:53.657Z,12.53
2023-04-09T21:16:21.666Z,11.67
2023-04-09T21:18:48.225Z,12.42
2023-04-09T21:21:14.288Z,12.49
2023-04-09T21:23:40.844Z,12.38
2023-04-09T21:26:08.255Z,11.78
2023-04-09T21:28:34.324Z,11.78
2023-04-09T21:31:00.441Z,11.91
2023-04-09T21:33:28.554Z,11.31
2023-04-09T21:35:56.310Z,12.01
2023-04-09T21:38:22.443Z,11.33
2023-04-09T21:40:48.584Z,10.37
2023-04-09T21:43:14.921Z,11.20
2023-04-09T21:45:41.078Z,11.39
2023-04-09T21:48:08.476Z,10.96
2023-04-09T21:50:35.181Z,11.18
2023-04-09T21:53:02.352Z,11.52
2023-04-09T21:55:28.748Z,10.84
2023-04-09T21:57:55.513Z,11.22
2023-04-09T22:00:21.817Z,11.66
2023-04-09T22:02:48.005Z,11.85
2023-04-09T22:05:14.143Z,11.63
2023-04-09T22:07:41.727Z,11.36
2023-04-09T22:10:09.266Z,11.74
2023-04-09T22:12:36.475Z,10.96
2023-04-09T22:15:04.150Z,11.51
2023-04-09T22:17:30.416Z,11.65
2023-04-09T22:19:56.715Z,11.64
2023-04-09T22:22:22.805Z,11.54
2023-04-09T22:24:48.924Z,10.84
2023-04-09T22:27:15.419Z,11.61
2023-04-09T22:29:41.569Z,11.72
2023-04-09T22:32:08.497Z,11.45
2023-04-09T22:34:34.597Z,11.32
2023-04-09T22:37:01.330Z,10.55
2023-04-09T22:39:27.420Z,10.90
2023-04-09T22:41:53.533Z,9.63
2023-04-09T22:44:19.957Z,10.71
2023-04-09T22:46:46.366Z,10.59
2023-04-09T22:49:12.495Z,10.49
2023-04-09T22:51:40.903Z,10.89
2023-04-09T22:54:07.915Z,11.19
2023-04-09T22:56:34.025Z,10.19
2023-04-09T22:59:00.180Z,10.69
2023-04-09T23:01:26.458Z,10.55
2023-04-09T23:03:52.657Z,9.60
2023-04-09T23:06:18.815Z,11.04
2023-04-09T23:08:45.125Z,11.10
2023-04-09T23:11:11.558Z,10.59
2023-04-09T23:13:38.071Z,10.90
2023-04-09T23:16:08.391Z,10.66
2023-04-09T23:18:36.006Z,10.70
2023-04-09T23:21:06.330Z,10.25
2023-04-09T23:23:33.303Z,10.56
2023-04-09T23:25:59.376Z,10.09
2023-04-09T23:28:25.507Z,9.77
2023-04-09T23:30:51.654Z,9.48
2023-04-09T23:33:18.809Z,8.92
2023-04-09T23:35:46.110Z,9.88
2023-04-09T23:38:12.361Z,8.79
2023-04-09T23:40:38.554Z,9.20
2023-04-09T23:43:04.684Z,10.44
2023-04-09T23:45:31.010Z,9.56
2023-04-09T23:47:57.124Z,9.10
2023-04-09T23:50:23.847Z,9.21
2023-04-09T23:52:50.746Z,10.41
2023-04-09T23:55:16.851Z,10.58
2023-04-09T23:57:42.993Z,10.24
